Nearby METAR Reports

 

KMRB - Martinsburg, West Virginia, USA
Distance from station: NNW 9mi, 14km
Updated: 10/21/2017 3:53am
Clear
Clear
 Wind from calm
Wind: Calm
Temperature: 43°F , 6°C
Dew Point: 39°F , 4°C
Humidity: 87%
Barometer: 30.27 inHg , 1025.1 hPa
Clouds: Clear
Visibility: 10 miles , 16 km
2017/10/21 07:53 KMRB 210753Z AUTO 00000KT 10SM CLR 06/04 A3027 RMK AO2 SLP250 T00560044
KOKV - Winchester Rgnl, Virginia, USA
Distance from station: SW 17mi, 28km
Updated: 10/21/2017 4:15am
Clear
Clear
 Wind from calm
Wind: Calm
Temperature: 43°F , 6°C
Dew Point: 43°F , 6°C
Humidity: 100%
Barometer: 30.28 inHg , 1025.4 hPa
Clouds: Clear
Visibility: 10 miles , 16 km
2017/10/21 08:15 KOKV 210815Z AUTO 00000KT 10SM CLR 06/06 A3028 RMK AO2
 
KJYO - Leesburg/Godfrey, Virginia, USA
Distance from station: SE 23mi, 38km
Updated: 10/21/2017 4:15am
Clear
Clear
 Wind from WSW
Wind: WSW 3 mph , 6 km/h
Temperature: 46°F , 8°C
Dew Point: 46°F , 8°C
Humidity: 100%
Barometer: 30.29 inHg , 1025.7 hPa
Clouds: Clear
Visibility: 10 miles , 16 km
2017/10/21 08:15 KJYO 210815Z AUTO 25003KT 10SM CLR 08/08 A3029 RMK AO2
KFDK - Frederick, Maryland, USA
Distance from station: ENE 30mi, 48km
Updated: 10/21/2017 4:05am
Clear
Clear
 Wind from calm
Wind: Calm
Temperature: 45°F , 7°C
Dew Point: 45°F , 7°C
Humidity: 100%
Barometer: 30.30 inHg , 1026.1 hPa
Clouds: Clear
Visibility: 10 miles , 16 km
2017/10/21 08:05 KFDK 210805Z AUTO 00000KT 10SM CLR 07/07 A3030 RMK AO2
 
KHGR - Hagerstown, Maryland, USA
Distance from station: NNE 30mi, 48km
Updated: 10/21/2017 3:53am
Clear
Clear
 Wind from calm
Wind: Calm
Temperature: 52°F , 11°C
Dew Point: 41°F , 5°C
Humidity: 67%
Barometer: 30.27 inHg , 1025.1 hPa
Clouds: Clear
Visibility: 10 miles , 16 km
2017/10/21 07:53 KHGR 210753Z AUTO 00000KT 10SM CLR 11/05 A3027 RMK AO2 SLP259 T01110050
KIAD - Wash Dc/Dulles, Virginia, USA
Distance from station: SE 34mi, 55km
Updated: 10/21/2017 3:52am
Clear
Clear
 Wind from calm
Wind: Calm
Temperature: 43°F , 6°C
Dew Point: 43°F , 6°C
Humidity: 100%
Barometer: 30.28 inHg , 1025.4 hPa
Clouds: Clear
Visibility: 7 miles , 11 km
2017/10/21 07:52 KIAD 210752Z 00000KT 7SM CLR 06/06 A3028 RMK AO2 SLP252 T00610061
 
KRSP - Nsf Thurmont, Maryland, USA
Distance from station: NE 34mi, 55km
Updated: 10/21/2017 3:54am
Clear
Clear
 Wind from S
Wind: S 3 mph , 6 km/h
Temperature: 57°F , 14°C
Dew Point: 36°F , 2°C
Humidity: 44%
Barometer: 30.29 inHg , 1025.7 hPa
Clouds: Clear
Visibility: 10 miles , 16 km
2017/10/21 07:54 KRSP 210754Z AUTO 17003KT 10SM CLR 14/02 A3029 RMK AO2 SLP257 T01390017 $
KGAI - Gaithersburg, Maryland, USA
Distance from station: E 40mi, 64km
Updated: 10/21/2017 3:56am
Clear
Clear
 Wind from calm
Wind: Calm
Temperature: 45°F , 7°C
Dew Point: 43°F , 6°C
Humidity: 93%
Barometer: 30.28 inHg , 1025.4 hPa
Clouds: Clear
Visibility: 10 miles , 16 km
2017/10/21 07:56 KGAI 210756Z AUTO 00000KT 10SM CLR 07/06 A3028 RMK AO2 SLP284 T00670061
 
KRYT - Fountain Dale, Pennsylvania, USA
Distance from station: NE 40mi, 64km
Updated: 10/21/2017 2:53am
NOT Current
Clear
Clear
 Wind from SW
Wind: SW 3 mph , 6 km/h
Temperature: 46°F , 8°C
Dew Point: 43°F , 6°C
Humidity: 87%
Barometer: 30.26 inHg , 1024.7 hPa
Clouds: Clear
Visibility: 10 miles , 16 km
2017/10/21 06:53 KRYT 210653Z AUTO 22003KT 10SM CLR 08/06 A3026 RMK AO2 SLP245 T00830056 TSNO $
KHEF - Manassas Muni, Virginia, USA
Distance from station: SSE 44mi, 72km
Updated: 10/21/2017 3:56am
Clear
Clear
 Wind from calm
Wind: Calm
Temperature: 43°F , 6°C
Dew Point: 41°F , 5°C
Humidity: 93%
Barometer: 30.28 inHg , 1025.4 hPa
Clouds: Clear
Visibility: 10 miles , 16 km
2017/10/21 07:56 KHEF 210756Z 00000KT 10SM CLR 06/05 A3028 RMK AO2 SLP266 T00560050 PNO $
 
KHWY - Warrenton, Virginia, USA
Distance from station: SSE 50mi, 80km
Updated: 10/21/2017 4:15am
Mist, Clear
Mist, Clear
 Wind from calm
Wind: Calm
Temperature: 39°F , 4°C
Dew Point: 37°F , 3°C
Humidity: 93%
Barometer: 30.28 inHg , 1025.4 hPa
Summary: Mist
Clouds: Clear
Visibility: 3 miles , 5 km
2017/10/21 08:15 KHWY 210815Z AUTO 00000KT 3SM BR CLR 04/03 A3028 RMK AO2 T00420027